Birmingham-Shuttlesworth International Airport
KBHM : now visible

Airfield :











YOU CAN JOIN US ON...

 
LOGIN :

Register | Disclaimer

   EN    FR    IT 

 









Legend :    VFR   Marginal VFR   IFR   Intensive IFR   Very Intensive IFR
Visi :
Ceiling :
>= 8 km
>= 3000ft
5 to 8 km
1000 to 3000 ft
1500m to 5 km
500 to 1000 ft
800 to 1500m
200 to 500 ft
< 800m
< 200 ft
Symbols :   Thunderstorms  Fog  Heavy snow  Heavy precipitations  Wind > 20 kt






- Airport Elevation : 650 ft
- IATA code : BHM


KBHM - Birmingham-Shuttlesworth International

CURRENT METAR :
  • 201453Z 11006KT 10SM FEW028 SCT250 25/17 A3006 RMK AO2 SLP171 T02500172 51015 $

EXPIRED METARs :
  • 201353Z VRB06KT 10SM FEW024 SCT250 23/17 A3005 RMK AO2 SLP169 T02330172 $
  • 201253Z 11008KT 10SM FEW035 FEW250 22/17 A3003 RMK AO2 SLP160 T02220172 $
  • 201153Z VRB04KT 10SM FEW035 FEW250 21/17 A3002 RMK AO2 SLP156 T02110172 10217 20194 53012 $
  • 201053Z 00000KT 10SM FEW250 21/17 A2999 RMK AO2 SLP147 T02060172 $

TAF KBHM
Valid from the 20 at 12:00 until the 21 at 12:00 UTC


201120Z 2012/2112 13007KT P6SM FEW250
FM210200 00000KT P6SM FEW250
KZTL FIR / North America



MET'MAP, your aeronautical weather chart ! - Copyright ORBIFLY December 2007 - Disclaimer

ORBIFLY MET'MAP TEAM :

Programming & Development : Alexandra Zaïnal
Original concept : Baudouin d'Aumeries
Technical & hardware support : Manuel Goepfert
Assistance : Marc-Olivier Méhu




SOURCES & CREDITS :

   NOAA       Earth
Advisory